TimeCDT,TemperatureF,Dew PointF,Humidity,Sea Level PressureIn,VisibilityMPH,Wind Direction,Wind SpeedMPH,Gust SpeedMPH,PrecipitationIn,Events,Conditions,WindDirDegrees,DateUTC
12:54 AM,42.1,28.0,58,30.33,10.0,NNW,3.5,-,N/A,,Mostly Cloudy,340,2012-10-07 05:54:00
1:54 AM,41.0,28.9,62,30.33,10.0,Calm,Calm,-,N/A,,Overcast,0,2012-10-07 06:54:00
2:54 AM,39.0,28.9,67,30.33,10.0,Calm,Calm,-,N/A,,Clear,0,2012-10-07 07:54:00
3:54 AM,39.0,28.9,67,30.30,10.0,Calm,Calm,-,N/A,,Clear,0,2012-10-07 08:54:00
4:54 AM,37.9,30.0,73,30.31,10.0,Calm,Calm,-,N/A,,Clear,0,2012-10-07 09:54:00
5:54 AM,35.1,28.9,78,30.31,10.0,SW,4.6,-,N/A,,Clear,230,2012-10-07 10:54:00
6:54 AM,34.0,28.0,79,30.32,10.0,WSW,5.8,-,N/A,,Clear,240,2012-10-07 11:54:00
7:54 AM,34.0,28.0,79,30.33,10.0,Calm,Calm,-,N/A,,Clear,0,2012-10-07 12:54:00
8:54 AM,37.9,28.9,70,30.35,10.0,WSW,3.5,-,N/A,,Clear,240,2012-10-07 13:54:00
9:54 AM,43.0,30.0,60,30.34,10.0,Calm,Calm,-,N/A,,Clear,0,2012-10-07 14:54:00
10:54 AM,46.9,30.0,52,30.33,10.0,Calm,Calm,-,N/A,,Clear,0,2012-10-07 15:54:00
11:54 AM,50.0,28.0,43,30.31,10.0,Calm,Calm,-,N/A,,Clear,0,2012-10-07 16:54:00
12:54 PM,53.1,24.1,32,30.28,10.0,Variable,3.5,-,N/A,,Clear,0,2012-10-07 17:54:00
1:54 PM,54.0,25.0,33,30.24,10.0,Variable,3.5,-,N/A,,Clear,0,2012-10-07 18:54:00
2:54 PM,55.9,24.1,29,30.20,10.0,South,5.8,-,N/A,,Clear,180,2012-10-07 19:54:00
3:54 PM,55.9,24.1,29,30.18,10.0,Calm,Calm,-,N/A,,Clear,0,2012-10-07 20:54:00
4:54 PM,55.9,23.0,28,30.16,10.0,West,5.8,-,N/A,,Clear,260,2012-10-07 21:54:00
5:54 PM,55.0,23.0,29,30.16,10.0,SW,5.8,-,N/A,,Clear,230,2012-10-07 22:54:00
6:54 PM,52.0,24.1,34,30.15,10.0,SW,5.8,-,N/A,,Clear,220,2012-10-07 23:54:00
7:54 PM,48.0,26.1,42,30.17,10.0,SSW,4.6,-,N/A,,Clear,200,2012-10-08 00:54:00
8:54 PM,48.0,28.0,46,30.16,10.0,SSW,5.8,-,N/A,,Clear,210,2012-10-08 01:54:00
9:54 PM,46.0,28.0,50,30.17,10.0,SSW,6.9,-,N/A,,Clear,200,2012-10-08 02:54:00
10:54 PM,46.0,28.0,50,30.17,10.0,SW,4.6,-,N/A,,Clear,230,2012-10-08 03:54:00
11:54 PM,45.0,28.0,52,30.15,10.0,SW,4.6,-,N/A,,Clear,230,2012-10-08 04:54:00